Goldwin, North Dakota
Current Conditions -  °F | °C
As of 4:35 PM on Monday 24 Nov 2014 (Local Time) from K46D Reporting Station
Clear Clear  
Wind Chill:   Ceiling: Unl
Heat Index: 16°   Visibility: 10mi
Dew Point:   Wind: 14mph
Humidity: 58%   Direction: 310°NW
Pressure: 29.96"   Gusts: NA
Location:  47.1537°N, 99.3545°W
Report Text: K46D 242235Z AUTO 31012KT 10SM CLR M09/M16 A2996 RMK AO2
Loading
Personal Weather Stations






























Interactive Weather Map New forecast layout! Learn more

10-Day Weather Forecast

Advertisements
Track Severe Weather on mobile